Floyds Knobs, IN (47119)

6:13 PM EDT on March 28, 2015 (GMT -0400)
Doug and Ginger | | Change Station
CLOSE
Current Station
Personal Weather Station
Location: Floyds Knobs, IN
Elevation: 735 ft
Nearby Weather Stations

Elev 735 ft 38.36 °N, 85.92 °W | Updated 10 minutes ago

Clear
Clear
41.2 °F
Feels Like 41 °F
N
1.7
Wind Variable Wind from ENE

Today
High -- | Low -- °F
--% Chance of Precip.
Yesterday
High -- | Low -- °F
Precip. -- in
7:35 AM 8:02 PM
Waxing Gibbous, 66% visible
Pressure 30.30 in
Visibility 10.0 miles
Clouds Few 6000 ft
Windchill 41 °F
Dew Point 20 °F
Humidity 43%
Rainfall 0.00 in
Snow Depth Not available.
UV 2 out of 12
Pollen 7.40 out of 12
Air Quality Not available.
Flu Activity Not available.
METAR KSDF 282156Z 01005KT 10SM FEW060 06/M11 A3028 RMK AO2 SLP258 T00611106

More Conditions Fewer Conditions

Pressure 30.30 in
Visibility 10.0 miles
Clouds Few 6000 ft
Windchill 41 °F
Dew Point 20 °F
Humidity 43%
Rainfall 0.00 in
Snow Depth Not available.
UV 2 out of 12
Pollen 7.40 out of 12
Air Quality Not available.
Flu Activity Not available.
METAR KSDF 282156Z 01005KT 10SM FEW060 06/M11 A3028 RMK AO2 SLP258 T00611106

More Conditions Fewer Conditions

10-Day Weather Forecast

Almanac

Astronomy

Mar. 28, 2015 Rise Set
Actual Time
Civil Twilight
Nautical Twilight
Astronomical Twilight
Moon
Length of Visible Light
Length of Day
Tomorrow will be .
, % of the Moon is Illuminated

Today's Extremes

State Highs State Lows

Community

WunderPhotos

Upload Photos

1,809,099 photos uploaded!

WunderBlogs® & News

Nearby

Air Quality

  Air Quality AQ Index Pollutant
Not available.

Snow Depth

Station Depth Elevation

Earthquake Activity

City Distance Mag. Time & Date
Minimum magnitude displayed is 2.5.

Coastal Water Temperatures

Place Temperature

Stations

Nearby Weather Stations

Station Location Temp. Windchill Dew Point Humidity Wind Precip. Elev Updated Type